LTAT

Malatya Erhaç Airport

Malatya, Turkey
TAF LTAT 221040Z 2212/2312 VRB02KT 9999 SCT020 BKN035
Issued Valid From Valid To
Jan-22 @ 10:40 UTC
(7 hours ago)
Jan-22 @ 12:00 UTC
(5 hours ago)
Jan-23 @ 12:00 UTC
(in 19 hours)
Jan-22 @ 12:00 to Jan-23 @ 12:00
TAF LTAT 221040Z 2212/2312 VRB02KT 9999 SCT020 BKN035
Wind Visibility Clouds
Variable at 2 knots 10,000+ meters
  • Scattered at 2,000' AGL
  • Broken at 3,500' AGL
TAF LTAT 221040Z 2212/2312 VRB02KT 9999 SCT020 BKN035
Issued Jan-22 @ 10:40 UTC
(7 hours ago)
Valid From Jan-22 @ 12:00 UTC
(5 hours ago)
Valid To Jan-23 @ 12:00 UTC
(in 19 hours)
Jan-22 @ 12:00 - Jan-23 @ 12:00
Wind Visibility
Variable at 2 knots 10,000+ meters
Clouds
  • Scattered at 2,000' AGL
  • Broken at 3,500' AGL